createdAt,value
2023-09-17T00:00:36.775Z,1009.66
2023-09-17T00:01:37.017Z,1009.64
2023-09-17T00:02:36.823Z,1009.64
2023-09-17T00:03:36.950Z,1009.62
2023-09-17T00:04:36.879Z,1009.63
2023-09-17T00:05:36.866Z,1009.60
2023-09-17T00:06:36.887Z,1009.58
2023-09-17T00:07:36.958Z,1009.62
2023-09-17T00:08:36.926Z,1009.59
2023-09-17T00:09:36.942Z,1009.61
2023-09-17T00:10:36.974Z,1009.62
2023-09-17T00:11:36.980Z,1009.61
2023-09-17T00:12:37.006Z,1009.63
2023-09-17T00:13:37.048Z,1009.64
2023-09-17T00:14:37.038Z,1009.62
2023-09-17T00:15:37.055Z,1009.66
2023-09-17T00:16:37.115Z,1009.66
2023-09-17T00:17:37.112Z,1009.66
2023-09-17T00:18:37.111Z,1009.66
2023-09-17T00:19:37.181Z,1009.69
2023-09-17T00:20:37.151Z,1009.67
2023-09-17T00:21:37.169Z,1009.69
2023-09-17T00:22:37.275Z,1009.66
2023-09-17T00:23:37.229Z,1009.69
2023-09-17T00:24:37.227Z,1009.68
2023-09-17T00:25:37.258Z,1009.69
2023-09-17T00:26:37.267Z,1009.69
2023-09-17T00:27:37.284Z,1009.66
2023-09-17T00:28:37.397Z,1009.70
2023-09-17T00:29:37.314Z,1009.68
2023-09-17T00:30:37.371Z,1009.70
2023-09-17T00:31:37.385Z,1009.72
2023-09-17T00:32:37.424Z,1009.70
2023-09-17T00:33:37.396Z,1009.72
2023-09-17T00:34:37.470Z,1009.70
2023-09-17T00:35:37.460Z,1009.73
2023-09-17T00:36:37.450Z,1009.70
2023-09-17T00:37:37.537Z,1009.72
2023-09-17T00:38:37.486Z,1009.72
2023-09-17T00:39:37.506Z,1009.69
2023-09-17T00:40:37.631Z,1009.69
2023-09-17T00:41:37.542Z,1009.68
2023-09-17T00:42:37.562Z,1009.65
2023-09-17T00:43:37.631Z,1009.62
2023-09-17T00:44:37.608Z,1009.64
2023-09-17T00:45:37.625Z,1009.67
2023-09-17T00:46:37.740Z,1009.65
2023-09-17T00:47:37.731Z,1009.66
2023-09-17T00:48:37.679Z,1009.66
2023-09-17T00:49:37.724Z,1009.68
2023-09-17T00:50:40.079Z,1009.62
2023-09-17T00:51:37.728Z,1009.68
2023-09-17T00:52:37.783Z,1009.67
2023-09-17T00:53:37.776Z,1009.69
2023-09-17T00:54:37.786Z,1009.67
2023-09-17T00:55:37.841Z,1009.67
2023-09-17T00:56:37.821Z,1009.67
2023-09-17T00:57:37.853Z,1009.66
2023-09-17T00:58:38.000Z,1009.66
2023-09-17T00:59:37.882Z,1009.66
2023-09-17T01:00:37.896Z,1009.67
2023-09-17T01:01:37.996Z,1009.62
2023-09-17T01:02:38.064Z,1009.65
2023-09-17T01:03:38.172Z,1009.61
2023-09-17T01:04:38.052Z,1009.65
2023-09-17T01:05:38.232Z,1009.63
2023-09-17T01:06:38.019Z,1009.61
2023-09-17T01:07:38.131Z,1009.59
2023-09-17T01:08:38.087Z,1009.62
2023-09-17T01:09:38.087Z,1009.58
2023-09-17T01:10:38.175Z,1009.58
2023-09-17T01:11:38.109Z,1009.56
2023-09-17T01:12:38.123Z,1009.56
2023-09-17T01:13:38.181Z,1009.52
2023-09-17T01:14:38.166Z,1009.54
2023-09-17T01:15:38.177Z,1009.55
2023-09-17T01:16:38.284Z,1009.54
2023-09-17T01:17:38.268Z,1009.50
2023-09-17T01:18:38.239Z,1009.52
2023-09-17T01:19:38.293Z,1009.53
2023-09-17T01:20:38.273Z,1009.52
2023-09-17T01:21:38.292Z,1009.52
2023-09-17T01:22:38.370Z,1009.54
2023-09-17T01:23:38.330Z,1009.56
2023-09-17T01:24:38.351Z,1009.53
2023-09-17T01:25:38.370Z,1009.56
2023-09-17T01:26:38.400Z,1009.53
2023-09-17T01:27:38.406Z,1009.54
2023-09-17T01:28:38.435Z,1009.54
2023-09-17T01:29:38.485Z,1009.56
2023-09-17T01:30:38.458Z,1009.58
2023-09-17T01:31:38.514Z,1009.54
2023-09-17T01:32:38.518Z,1009.57
2023-09-17T01:33:38.532Z,1009.59
2023-09-17T01:34:38.616Z,1009.63
2023-09-17T01:35:38.554Z,1009.56
2023-09-17T01:36:38.571Z,1009.53
2023-09-17T01:37:38.675Z,1009.56
2023-09-17T01:38:38.621Z,1009.54
2023-09-17T01:39:38.638Z,1009.56
2023-09-17T01:40:38.745Z,1009.53
2023-09-17T01:41:38.687Z,1009.56
2023-09-17T01:42:38.680Z,1009.56
2023-09-17T01:43:38.780Z,1009.56
2023-09-17T01:44:38.717Z,1009.55
2023-09-17T01:45:38.768Z,1009.60
2023-09-17T01:46:38.768Z,1009.56
2023-09-17T01:47:38.777Z,1009.60
2023-09-17T01:48:38.791Z,1009.60
2023-09-17T01:49:38.835Z,1009.63
2023-09-17T01:50:38.835Z,1009.65
2023-09-17T01:51:38.842Z,1009.64
2023-09-17T01:52:38.898Z,1009.66
2023-09-17T01:53:38.884Z,1009.64
2023-09-17T01:54:38.901Z,1009.64
2023-09-17T01:55:38.934Z,1009.61
2023-09-17T01:56:38.935Z,1009.62
2023-09-17T01:57:38.965Z,1009.64
2023-09-17T01:58:39.018Z,1009.62
2023-09-17T01:59:38.996Z,1009.63
2023-09-17T02:00:39.013Z,1009.66
2023-09-17T02:01:39.080Z,1009.65
2023-09-17T02:02:39.122Z,1009.62
2023-09-17T02:03:39.121Z,1009.65
2023-09-17T02:04:39.120Z,1009.66
2023-09-17T02:05:39.101Z,1009.64
2023-09-17T02:06:39.119Z,1009.70
2023-09-17T02:07:39.194Z,1009.67
2023-09-17T02:08:39.157Z,1009.68
2023-09-17T02:09:39.192Z,1009.69
2023-09-17T02:10:39.225Z,1009.70
2023-09-17T02:11:39.210Z,1009.67
2023-09-17T02:12:39.226Z,1009.70
2023-09-17T02:13:39.301Z,1009.68
2023-09-17T02:14:39.262Z,1009.72
2023-09-17T02:15:39.305Z,1009.72
2023-09-17T02:16:39.330Z,1009.71
2023-09-17T02:17:39.353Z,1009.70
2023-09-17T02:18:39.332Z,1009.67
2023-09-17T02:19:39.401Z,1009.64
2023-09-17T02:20:39.364Z,1009.64
2023-09-17T02:21:39.385Z,1009.66
2023-09-17T02:22:39.454Z,1009.63
2023-09-17T02:23:39.421Z,1009.67
2023-09-17T02:24:39.438Z,1009.69
2023-09-17T02:25:39.484Z,1009.62
2023-09-17T02:26:39.473Z,1009.65
2023-09-17T02:27:39.500Z,1009.67
2023-09-17T02:28:39.607Z,1009.62
2023-09-17T02:29:39.534Z,1009.65
2023-09-17T02:30:39.542Z,1009.59
2023-09-17T02:31:39.639Z,1009.63
2023-09-17T02:32:39.616Z,1009.65
2023-09-17T02:33:39.599Z,1009.67
2023-09-17T02:34:39.698Z,1009.67
2023-09-17T02:35:39.638Z,1009.63
2023-09-17T02:36:39.649Z,1009.64
2023-09-17T02:37:39.721Z,1009.64
2023-09-17T02:38:39.689Z,1009.65
2023-09-17T02:39:39.707Z,1009.65
2023-09-17T02:40:39.770Z,1009.66
2023-09-17T02:41:39.740Z,1009.65
2023-09-17T02:42:39.762Z,1009.67
2023-09-17T02:43:39.828Z,1009.64
2023-09-17T02:44:39.817Z,1009.62
2023-09-17T02:45:39.811Z,1009.66
2023-09-17T02:46:39.930Z,1009.67
2023-09-17T02:47:39.919Z,1009.69
2023-09-17T02:48:39.868Z,1009.64
2023-09-17T02:49:39.929Z,1009.66
2023-09-17T02:50:39.913Z,1009.65
2023-09-17T02:51:39.926Z,1009.62
2023-09-17T02:52:39.985Z,1009.58
2023-09-17T02:53:39.964Z,1009.60
2023-09-17T02:54:40.021Z,1009.58
2023-09-17T02:55:40.038Z,1009.58
2023-09-17T02:56:40.012Z,1009.57
2023-09-17T02:57:40.031Z,1009.57
2023-09-17T02:58:40.078Z,1009.55
2023-09-17T02:59:40.069Z,1009.60
2023-09-17T03:00:40.363Z,1009.58
2023-09-17T03:01:40.152Z,1009.54
2023-09-17T03:02:40.450Z,1009.51
2023-09-17T03:03:40.286Z,1009.51
2023-09-17T03:04:40.168Z,1009.49
2023-09-17T03:05:40.181Z,1009.51
2023-09-17T03:06:40.197Z,1009.52
2023-09-17T03:07:40.247Z,1009.54
2023-09-17T03:08:40.230Z,1009.55
2023-09-17T03:09:40.251Z,1009.54
2023-09-17T03:10:40.285Z,1009.58
2023-09-17T03:11:40.284Z,1009.57
2023-09-17T03:12:40.303Z,1009.58
2023-09-17T03:13:40.356Z,1009.55
2023-09-17T03:14:40.339Z,1009.55
2023-09-17T03:15:40.361Z,1009.55
2023-09-17T03:16:40.455Z,1009.54
2023-09-17T03:17:40.431Z,1009.54
2023-09-17T03:18:40.413Z,1009.58
2023-09-17T03:19:40.449Z,1009.57
2023-09-17T03:20:40.453Z,1009.55
2023-09-17T03:21:40.463Z,1009.54
2023-09-17T03:22:40.527Z,1009.56
2023-09-17T03:23:40.510Z,1009.55
2023-09-17T03:24:47.558Z,1009.53
2023-09-17T03:25:40.641Z,1009.54
2023-09-17T03:26:40.578Z,1009.57
2023-09-17T03:27:40.575Z,1009.56
2023-09-17T03:28:40.666Z,1009.53
2023-09-17T03:29:40.667Z,1009.60
2023-09-17T03:30:40.694Z,1009.60
2023-09-17T03:31:40.668Z,1009.59
2023-09-17T03:32:53.357Z,1009.61
2023-09-17T03:33:40.702Z,1009.61
2023-09-17T03:34:40.723Z,1009.63
2023-09-17T03:35:40.727Z,1009.64
2023-09-17T03:36:40.733Z,1009.62
2023-09-17T03:37:40.775Z,1009.64
2023-09-17T03:38:40.771Z,1009.63
2023-09-17T03:39:40.792Z,1009.65
2023-09-17T03:40:40.869Z,1009.65
2023-09-17T03:41:40.822Z,1009.63
2023-09-17T03:42:40.843Z,1009.63
2023-09-17T03:43:40.869Z,1009.62
2023-09-17T03:44:40.878Z,1009.62
2023-09-17T03:45:40.896Z,1009.55
2023-09-17T03:46:41.005Z,1009.58
2023-09-17T03:47:40.950Z,1009.56
2023-09-17T03:48:40.948Z,1009.56
2023-09-17T03:49:41.001Z,1009.57
2023-09-17T03:50:40.986Z,1009.60
2023-09-17T03:51:41.002Z,1009.61
2023-09-17T03:52:41.026Z,1009.59
2023-09-17T03:53:41.037Z,1009.60
2023-09-17T03:54:41.060Z,1009.64
2023-09-17T03:55:41.160Z,1009.63
2023-09-17T03:56:41.090Z,1009.63
2023-09-17T03:57:41.110Z,1009.66
2023-09-17T03:58:41.166Z,1009.67
2023-09-17T03:59:41.144Z,1009.67
2023-09-17T04:00:41.162Z,1009.69
2023-09-17T04:01:41.261Z,1009.68
2023-09-17T04:02:41.276Z,1009.71
2023-09-17T04:03:41.236Z,1009.71
2023-09-17T04:04:41.275Z,1009.72
2023-09-17T04:05:41.249Z,1009.79
2023-09-17T04:06:41.268Z,1009.75
2023-09-17T04:07:41.339Z,1009.75
2023-09-17T04:08:41.302Z,1009.75
2023-09-17T04:09:41.323Z,1009.78
2023-09-17T04:10:41.396Z,1009.77
2023-09-17T04:11:41.361Z,1009.79
2023-09-17T04:12:41.368Z,1009.79
2023-09-17T04:13:41.420Z,1009.76
2023-09-17T04:14:41.418Z,1009.74
2023-09-17T04:15:41.427Z,1009.82
2023-09-17T04:16:41.554Z,1009.83
2023-09-17T04:17:41.489Z,1009.83
2023-09-17T04:18:41.478Z,1009.82
2023-09-17T04:19:41.531Z,1009.80
2023-09-17T04:20:41.513Z,1009.80
2023-09-17T04:21:41.531Z,1009.83
2023-09-17T04:22:41.608Z,1009.81
2023-09-17T04:23:41.567Z,1009.83
2023-09-17T04:24:41.588Z,1009.84
2023-09-17T04:25:41.613Z,1009.86
2023-09-17T04:26:41.623Z,1009.84
2023-09-17T04:27:41.640Z,1009.84
2023-09-17T04:28:41.713Z,1009.84
2023-09-17T04:29:41.675Z,1009.86
2023-09-17T04:30:41.702Z,1009.89
2023-09-17T04:31:41.785Z,1009.88
2023-09-17T04:32:41.783Z,1009.89
2023-09-17T04:33:41.752Z,1009.91
2023-09-17T04:34:41.783Z,1009.87
2023-09-17T04:35:41.786Z,1009.92
2023-09-17T04:36:41.803Z,1009.90
2023-09-17T04:37:41.924Z,1009.92
2023-09-17T04:38:41.839Z,1009.93
2023-09-17T04:39:41.867Z,1009.94
2023-09-17T04:40:41.951Z,1009.94
2023-09-17T04:41:41.906Z,1009.93
2023-09-17T04:42:41.972Z,1009.94
2023-09-17T04:43:41.966Z,1009.93
2023-09-17T04:44:41.950Z,1009.94
2023-09-17T04:45:42.014Z,1009.96
2023-09-17T04:46:42.047Z,1009.97
2023-09-17T04:47:42.018Z,1010.00
2023-09-17T04:48:42.016Z,1010.01
2023-09-17T04:49:42.061Z,1009.99
2023-09-17T04:50:42.522Z,1009.97
2023-09-17T04:51:42.072Z,1009.95
2023-09-17T04:52:42.111Z,1009.94
2023-09-17T04:53:42.104Z,1009.95
2023-09-17T04:54:42.121Z,1009.96
2023-09-17T04:55:42.198Z,1009.96
2023-09-17T04:56:42.163Z,1009.98
2023-09-17T04:57:42.176Z,1009.96
2023-09-17T04:58:42.257Z,1010.00
2023-09-17T04:59:42.216Z,1010.01
2023-09-17T05:00:42.227Z,1010.01
2023-09-17T05:01:42.301Z,1010.02
2023-09-17T05:02:42.302Z,1010.06
2023-09-17T05:03:42.363Z,1010.05
2023-09-17T05:04:42.331Z,1010.02
2023-09-17T05:05:42.321Z,1010.07
2023-09-17T05:06:42.334Z,1010.09
2023-09-17T05:07:42.392Z,1010.10
2023-09-17T05:08:42.365Z,1010.10
2023-09-17T05:09:42.383Z,1010.09
2023-09-17T05:10:42.446Z,1010.10
2023-09-17T05:11:42.420Z,1010.09
2023-09-17T05:12:42.440Z,1010.11
2023-09-17T05:13:42.493Z,1010.08
2023-09-17T05:14:43.800Z,1010.11
2023-09-17T05:15:42.542Z,1010.07
2023-09-17T05:16:42.565Z,1010.10
2023-09-17T05:17:42.560Z,1010.09
2023-09-17T05:18:42.553Z,1010.06
2023-09-17T05:19:42.576Z,1010.03
2023-09-17T05:20:42.587Z,1010.06
2023-09-17T05:21:42.599Z,1010.07
2023-09-17T05:22:42.649Z,1010.13
2023-09-17T05:23:42.641Z,1010.07
2023-09-17T05:24:42.651Z,1010.09
2023-09-17T05:25:42.746Z,1010.11
2023-09-17T05:26:42.697Z,1010.12
2023-09-17T05:27:42.707Z,1010.10
2023-09-17T05:28:42.775Z,1010.12
2023-09-17T05:29:42.742Z,1010.10
2023-09-17T05:30:42.765Z,1010.08
2023-09-17T05:31:42.854Z,1010.10
2023-09-17T05:32:42.823Z,1010.14
2023-09-17T05:33:42.815Z,1010.15
2023-09-17T05:34:42.845Z,1010.15
2023-09-17T05:35:42.858Z,1010.11
2023-09-17T05:36:42.876Z,1010.16
2023-09-17T05:37:42.909Z,1010.16
2023-09-17T05:38:42.905Z,1010.18
2023-09-17T05:39:42.923Z,1010.21
2023-09-17T05:40:42.958Z,1010.22
2023-09-17T05:41:42.961Z,1010.22
2023-09-17T05:42:42.980Z,1010.23
2023-09-17T05:43:43.071Z,1010.26
2023-09-17T05:44:43.013Z,1010.25
2023-09-17T05:45:43.066Z,1010.30
2023-09-17T05:46:43.129Z,1010.29
2023-09-17T05:47:43.105Z,1010.30
2023-09-17T05:48:43.085Z,1010.33
2023-09-17T05:49:43.150Z,1010.34
2023-09-17T05:50:43.176Z,1010.39
2023-09-17T05:51:43.145Z,1010.35
2023-09-17T05:52:43.197Z,1010.34
2023-09-17T05:53:43.185Z,1010.35
2023-09-17T05:54:43.201Z,1010.34
2023-09-17T05:55:43.235Z,1010.34
2023-09-17T05:56:43.236Z,1010.37
2023-09-17T05:57:43.255Z,1010.39
2023-09-17T05:58:43.285Z,1010.40
2023-09-17T05:59:43.291Z,1010.42
2023-09-17T06:00:43.310Z,1010.46
2023-09-17T06:01:43.398Z,1010.48
2023-09-17T06:02:43.376Z,1010.46
2023-09-17T06:03:43.404Z,1010.48
2023-09-17T06:04:43.393Z,1010.48
2023-09-17T06:05:43.402Z,1010.47
2023-09-17T06:06:43.428Z,1010.49
2023-09-17T06:07:43.498Z,1010.49
2023-09-17T06:08:43.460Z,1010.48
2023-09-17T06:09:43.476Z,1010.50
2023-09-17T06:10:43.516Z,1010.49
2023-09-17T06:11:43.517Z,1010.50
2023-09-17T06:12:43.544Z,1010.51
2023-09-17T06:13:43.581Z,1010.51
2023-09-17T06:14:43.571Z,1010.50
2023-09-17T06:15:43.618Z,1010.53
2023-09-17T06:16:56.756Z,1010.52
2023-09-17T06:17:43.656Z,1010.52
2023-09-17T06:18:43.647Z,1010.56
2023-09-17T06:19:43.680Z,1010.57
2023-09-17T06:20:43.703Z,1010.57
2023-09-17T06:21:43.704Z,1010.56
2023-09-17T06:22:43.781Z,1010.55
2023-09-17T06:23:43.748Z,1010.60
2023-09-17T06:24:43.758Z,1010.61
2023-09-17T06:25:43.919Z,1010.67
2023-09-17T06:26:43.809Z,1010.69
2023-09-17T06:27:43.833Z,1010.71
2023-09-17T06:28:43.860Z,1010.68
2023-09-17T06:29:43.860Z,1010.67
2023-09-17T06:30:43.886Z,1010.68
2023-09-17T06:31:44.043Z,1010.72
2023-09-17T06:32:43.938Z,1010.75
2023-09-17T06:33:43.928Z,1010.74
2023-09-17T06:34:43.967Z,1010.74
2023-09-17T06:35:43.970Z,1010.74
2023-09-17T06:36:43.988Z,1010.74
2023-09-17T06:37:44.032Z,1010.78
2023-09-17T06:38:44.023Z,1010.77
2023-09-17T06:39:44.043Z,1010.77
2023-09-17T06:40:44.092Z,1010.78
2023-09-17T06:41:44.082Z,1010.75
2023-09-17T06:42:44.100Z,1010.75
2023-09-17T06:43:44.132Z,1010.77
2023-09-17T06:44:44.140Z,1010.71
2023-09-17T06:45:44.159Z,1010.77
2023-09-17T06:46:44.357Z,1010.77
2023-09-17T06:47:44.359Z,1010.78
2023-09-17T06:48:44.215Z,1010.75
2023-09-17T06:49:44.266Z,1010.78
2023-09-17T06:50:44.255Z,1010.82
2023-09-17T06:51:44.272Z,1010.78
2023-09-17T06:52:44.324Z,1010.81
2023-09-17T06:53:44.314Z,1010.84
2023-09-17T06:54:44.337Z,1010.84
2023-09-17T06:55:44.371Z,1010.85
2023-09-17T06:56:44.373Z,1010.88
2023-09-17T06:57:44.399Z,1010.87
2023-09-17T06:58:44.476Z,1010.88
2023-09-17T06:59:44.445Z,1010.90
2023-09-17T07:00:44.462Z,1010.85
2023-09-17T07:01:44.542Z,1010.89
2023-09-17T07:02:44.535Z,1010.88
2023-09-17T07:03:44.512Z,1010.88
2023-09-17T07:04:44.628Z,1010.85
2023-09-17T07:05:44.561Z,1010.88
2023-09-17T07:06:44.575Z,1010.86
2023-09-17T07:07:44.625Z,1010.91
2023-09-17T07:08:44.613Z,1010.88
2023-09-17T07:09:44.631Z,1010.89
2023-09-17T07:10:44.702Z,1010.91
2023-09-17T07:11:44.672Z,1010.89
2023-09-17T07:12:44.724Z,1010.93
2023-09-17T07:13:44.735Z,1010.93
2023-09-17T07:14:44.732Z,1010.93
2023-09-17T07:15:44.753Z,1010.90
2023-09-17T07:16:44.828Z,1010.94
2023-09-17T07:17:44.848Z,1010.91
2023-09-17T07:18:44.813Z,1010.92
2023-09-17T07:19:44.878Z,1010.92
2023-09-17T07:20:44.856Z,1010.93
2023-09-17T07:21:44.877Z,1010.94
2023-09-17T07:22:44.955Z,1010.94
2023-09-17T07:23:44.918Z,1010.95
2023-09-17T07:24:44.935Z,1010.94
2023-09-17T07:25:45.021Z,1010.93
2023-09-17T07:26:44.982Z,1010.96
2023-09-17T07:27:44.999Z,1011.00
2023-09-17T07:28:45.125Z,1011.00
2023-09-17T07:29:45.041Z,1010.97
2023-09-17T07:30:45.075Z,1010.97
2023-09-17T07:31:45.140Z,1010.97
2023-09-17T07:32:45.150Z,1010.98
2023-09-17T07:33:45.124Z,1010.98
2023-09-17T07:34:45.169Z,1010.98
2023-09-17T07:35:45.219Z,1010.95
2023-09-17T07:36:45.197Z,1010.98
2023-09-17T07:38:45.229Z,1010.92
2023-09-17T07:39:45.254Z,1010.91
2023-09-17T07:40:45.284Z,1010.93
2023-09-17T07:41:45.298Z,1010.95
2023-09-17T07:42:45.315Z,1010.92
2023-09-17T07:43:45.367Z,1010.92
2023-09-17T07:44:45.388Z,1010.94
2023-09-17T07:45:45.378Z,1010.93
2023-09-17T07:46:45.463Z,1010.89
2023-09-17T07:47:45.495Z,1010.91
2023-09-17T07:48:45.455Z,1010.94
2023-09-17T07:49:45.522Z,1010.94
2023-09-17T07:50:45.488Z,1010.95
2023-09-17T07:51:45.512Z,1010.92
2023-09-17T07:52:45.587Z,1010.94
2023-09-17T07:53:45.554Z,1010.94
2023-09-17T07:54:45.573Z,1010.95
2023-09-17T07:55:45.666Z,1010.95
2023-09-17T07:56:45.616Z,1010.94
2023-09-17T07:57:45.639Z,1010.92
2023-09-17T07:58:45.702Z,1010.94
2023-09-17T07:59:45.680Z,1010.91
2023-09-17T08:00:45.704Z,1010.89
2023-09-17T08:01:45.793Z,1010.93
2023-09-17T08:02:46.313Z,1010.93
2023-09-17T08:03:45.887Z,1010.92
2023-09-17T08:04:45.823Z,1010.94
2023-09-17T08:05:45.826Z,1010.94
2023-09-17T08:06:45.834Z,1010.88
2023-09-17T08:07:45.911Z,1010.97
2023-09-17T08:08:45.880Z,1010.93
2023-09-17T08:09:45.910Z,1010.94
2023-09-17T08:10:45.951Z,1010.97
2023-09-17T08:11:45.943Z,1010.95
2023-09-17T08:12:45.963Z,1011.00
2023-09-17T08:13:46.078Z,1010.98
2023-09-17T08:14:46.010Z,1010.96
2023-09-17T08:15:46.031Z,1011.01
2023-09-17T08:16:46.083Z,1010.98
2023-09-17T08:17:46.100Z,1010.97
2023-09-17T08:18:46.099Z,1010.99
2023-09-17T08:19:46.145Z,1010.99
2023-09-17T08:20:46.140Z,1010.96
2023-09-17T08:21:46.161Z,1010.94
2023-09-17T08:22:46.226Z,1010.97
2023-09-17T08:23:46.206Z,1010.96
2023-09-17T08:24:46.227Z,1010.97
2023-09-17T08:25:46.275Z,1010.93
2023-09-17T08:26:46.270Z,1011.00
2023-09-17T08:27:46.291Z,1010.99
2023-09-17T08:28:46.409Z,1010.98
2023-09-17T08:29:46.340Z,1010.90
2023-09-17T08:30:46.402Z,1010.96
2023-09-17T08:31:46.419Z,1010.99
2023-09-17T08:32:46.419Z,1010.96
2023-09-17T08:33:46.423Z,1010.99
2023-09-17T08:34:46.505Z,1011.02
2023-09-17T08:35:46.479Z,1011.01
2023-09-17T08:36:46.489Z,1011.06
2023-09-17T08:37:46.546Z,1011.05
2023-09-17T08:38:46.536Z,1010.99
2023-09-17T08:39:46.556Z,1011.00
2023-09-17T08:40:46.625Z,1011.04
2023-09-17T08:41:46.599Z,1011.03
2023-09-17T08:42:46.623Z,1011.02
2023-09-17T08:43:46.700Z,1011.02
2023-09-17T08:44:46.679Z,1011.02
2023-09-17T08:45:46.826Z,1011.01
2023-09-17T08:46:46.781Z,1010.99
2023-09-17T08:47:46.765Z,1011.00
2023-09-17T08:48:46.760Z,1010.98
2023-09-17T08:49:46.859Z,1010.95
2023-09-17T08:50:46.805Z,1010.95
2023-09-17T08:51:46.826Z,1010.95
2023-09-17T08:52:46.921Z,1010.95
2023-09-17T08:53:46.920Z,1010.92
2023-09-17T08:54:46.896Z,1010.93
2023-09-17T08:55:48.043Z,1010.95
2023-09-17T08:56:46.966Z,1010.89
2023-09-17T08:57:46.966Z,1010.92
2023-09-17T08:58:47.040Z,1010.90
2023-09-17T08:59:47.011Z,1010.89
2023-09-17T09:00:47.048Z,1010.88
2023-09-17T09:01:47.139Z,1010.89
2023-09-17T09:02:47.173Z,1010.89
2023-09-17T09:03:47.187Z,1010.88
2023-09-17T09:04:47.176Z,1010.91
2023-09-17T09:05:47.147Z,1010.92
2023-09-17T09:06:47.174Z,1010.83
2023-09-17T09:07:47.224Z,1010.83
2023-09-17T09:08:47.231Z,1010.88
2023-09-17T09:09:47.238Z,1010.87
2023-09-17T09:10:47.311Z,1010.86
2023-09-17T09:11:47.286Z,1010.87
2023-09-17T09:12:47.314Z,1010.84
2023-09-17T09:13:47.451Z,1010.85
2023-09-17T09:14:47.353Z,1010.87
2023-09-17T09:15:47.414Z,1010.87
2023-09-17T09:16:47.431Z,1010.83
2023-09-17T09:17:47.486Z,1010.87
2023-09-17T09:18:47.449Z,1010.83
2023-09-17T09:19:47.503Z,1010.87
2023-09-17T09:20:47.501Z,1010.87
2023-09-17T09:21:47.519Z,1010.84
2023-09-17T09:22:47.566Z,1010.87
2023-09-17T09:23:47.562Z,1010.86
2023-09-17T09:24:47.591Z,1010.85
2023-09-17T09:25:47.621Z,1010.89
2023-09-17T09:26:47.631Z,1010.85
2023-09-17T09:27:47.652Z,1010.92
2023-09-17T09:28:47.729Z,1010.90
2023-09-17T09:29:47.709Z,1010.86
2023-09-17T09:30:47.726Z,1010.88
2023-09-17T09:31:47.791Z,1010.90
2023-09-17T09:32:47.846Z,1010.88
2023-09-17T09:33:47.794Z,1010.88
2023-09-17T09:34:47.863Z,1010.89
2023-09-17T09:35:47.845Z,1010.89
2023-09-17T09:36:47.864Z,1010.82
2023-09-17T09:37:47.942Z,1010.85
2023-09-17T09:38:47.909Z,1010.86
2023-09-17T09:39:47.934Z,1010.84
2023-09-17T09:40:47.985Z,1010.86
2023-09-17T09:41:47.980Z,1010.84
2023-09-17T09:42:48.090Z,1010.83
2023-09-17T09:43:48.084Z,1010.83
2023-09-17T09:44:48.049Z,1010.82
2023-09-17T09:45:48.133Z,1010.83
2023-09-17T09:46:48.168Z,1010.81
2023-09-17T09:47:48.170Z,1010.81
2023-09-17T09:48:48.167Z,1010.79
2023-09-17T09:49:48.210Z,1010.78
2023-09-17T09:50:48.193Z,1010.80
2023-09-17T09:51:48.218Z,1010.76
2023-09-17T09:52:48.250Z,1010.74
2023-09-17T09:53:48.270Z,1010.75
2023-09-17T09:54:48.289Z,1010.75
2023-09-17T09:55:48.360Z,1010.72
2023-09-17T09:56:48.338Z,1010.69
2023-09-17T09:57:48.361Z,1010.75
2023-09-17T09:58:48.410Z,1010.73
2023-09-17T09:59:48.410Z,1010.72
2023-09-17T10:00:48.469Z,1010.73
2023-09-17T10:01:48.468Z,1010.73
2023-09-17T10:02:48.491Z,1010.75
2023-09-17T10:03:48.704Z,1010.74
2023-09-17T10:04:48.601Z,1010.76
2023-09-17T10:05:48.568Z,1010.76
2023-09-17T10:06:48.580Z,1010.75
2023-09-17T10:07:48.625Z,1010.71
2023-09-17T10:08:48.627Z,1010.73
2023-09-17T10:09:48.647Z,1010.77
2023-09-17T10:10:48.711Z,1010.80
2023-09-17T10:11:48.701Z,1010.76
2023-09-17T10:12:48.728Z,1010.78
2023-09-17T10:13:48.862Z,1010.74
2023-09-17T10:14:48.778Z,1010.76
2023-09-17T10:15:48.870Z,1010.73
2023-09-17T10:16:48.850Z,1010.69
2023-09-17T10:17:48.865Z,1010.64
2023-09-17T10:18:48.870Z,1010.69
2023-09-17T10:19:48.916Z,1010.71
2023-09-17T10:20:48.924Z,1010.69
2023-09-17T10:21:48.943Z,1010.69
2023-09-17T10:22:49.017Z,1010.68
2023-09-17T10:23:49.357Z,1010.67
2023-09-17T10:24:49.022Z,1010.69
2023-09-17T10:25:49.082Z,1010.69
2023-09-17T10:26:49.064Z,1010.67
2023-09-17T10:27:49.089Z,1010.68
2023-09-17T10:28:49.139Z,1010.69
2023-09-17T10:29:49.133Z,1010.68
2023-09-17T10:30:49.187Z,1010.67
2023-09-17T10:31:49.202Z,1010.64
2023-09-17T10:32:49.263Z,1010.63
2023-09-17T10:33:49.533Z,1010.64
2023-09-17T10:34:49.278Z,1010.66
2023-09-17T10:35:49.284Z,1010.64
2023-09-17T10:36:49.306Z,1010.64
2023-09-17T10:37:49.358Z,1010.64
2023-09-17T10:38:49.401Z,1010.68
2023-09-17T10:39:49.379Z,1010.67
2023-09-17T10:40:49.433Z,1010.65
2023-09-17T10:41:49.426Z,1010.68
2023-09-17T10:42:49.450Z,1010.69
2023-09-17T10:43:49.565Z,1010.67
2023-09-17T10:44:50.532Z,1010.72
2023-09-17T10:45:49.525Z,1010.74
2023-09-17T10:46:49.652Z,1010.70
2023-09-17T10:47:49.650Z,1010.71
2023-09-17T10:48:49.595Z,1010.72
2023-09-17T10:49:49.654Z,1010.70
2023-09-17T10:50:49.649Z,1010.71
2023-09-17T10:51:49.672Z,1010.70
2023-09-17T10:52:51.288Z,1010.67
2023-09-17T10:53:50.001Z,1010.71
2023-09-17T10:54:49.751Z,1010.75
2023-09-17T10:55:49.808Z,1010.73
2023-09-17T10:56:49.795Z,1010.75
2023-09-17T10:57:49.830Z,1010.76
2023-09-17T10:58:49.872Z,1010.73
2023-09-17T10:59:49.870Z,1010.77
2023-09-17T11:00:49.933Z,1010.75
2023-09-17T11:01:49.968Z,1010.72
2023-09-17T11:02:50.079Z,1010.75
2023-09-17T11:03:50.424Z,1010.73
2023-09-17T11:04:50.069Z,1010.71
2023-09-17T11:05:50.016Z,1010.73
2023-09-17T11:06:50.048Z,1010.72
2023-09-17T11:07:50.091Z,1010.71
2023-09-17T11:08:50.092Z,1010.73
2023-09-17T11:09:50.119Z,1010.73
2023-09-17T11:10:50.184Z,1010.76
2023-09-17T11:11:50.196Z,1010.74
2023-09-17T11:12:50.198Z,1010.74
2023-09-17T11:13:50.465Z,1010.71
2023-09-17T11:14:50.245Z,1010.72
2023-09-17T11:15:50.288Z,1010.75
2023-09-17T11:16:50.405Z,1010.72
2023-09-17T11:17:50.375Z,1010.71
2023-09-17T11:18:50.342Z,1010.75
2023-09-17T11:19:50.385Z,1010.77
2023-09-17T11:20:50.392Z,1010.70
2023-09-17T11:21:50.422Z,1010.74
2023-09-17T11:22:50.452Z,1010.74
2023-09-17T11:23:50.704Z,1010.70
2023-09-17T11:24:50.493Z,1010.70
2023-09-17T11:25:50.539Z,1010.66
2023-09-17T11:26:50.570Z,1010.69
2023-09-17T11:27:50.573Z,1010.71
2023-09-17T11:28:50.616Z,1010.72
2023-09-17T11:29:50.622Z,1010.71
2023-09-17T11:30:50.699Z,1010.73
2023-09-17T11:31:50.700Z,1010.70
2023-09-17T11:32:50.739Z,1010.70
2023-09-17T11:33:50.934Z,1010.71
2023-09-17T11:34:50.771Z,1010.70
2023-09-17T11:35:50.772Z,1010.69
2023-09-17T11:36:50.794Z,1010.72
2023-09-17T11:37:50.873Z,1010.67
2023-09-17T11:38:51.147Z,1010.69
2023-09-17T11:39:50.878Z,1010.70
2023-09-17T11:40:50.924Z,1010.70
2023-09-17T11:41:50.923Z,1010.68
2023-09-17T11:42:50.964Z,1010.70
2023-09-17T11:43:51.258Z,1010.68
2023-09-17T11:44:50.999Z,1010.66
2023-09-17T11:45:51.090Z,1010.65
2023-09-17T11:46:51.167Z,1010.68
2023-09-17T11:47:51.076Z,1010.66
2023-09-17T11:48:51.101Z,1010.66
2023-09-17T11:49:51.163Z,1010.69
2023-09-17T11:50:51.158Z,1010.66
2023-09-17T11:51:51.181Z,1010.70
2023-09-17T11:52:51.249Z,1010.71
2023-09-17T11:53:51.576Z,1010.68
2023-09-17T11:54:51.258Z,1010.70
2023-09-17T11:55:51.290Z,1010.71
2023-09-17T11:56:51.302Z,1010.69
2023-09-17T11:57:51.329Z,1010.66
2023-09-17T11:58:51.378Z,1010.68
2023-09-17T11:59:51.382Z,1010.68
2023-09-17T12:00:51.412Z,1010.70
2023-09-17T12:01:51.549Z,1010.69
2023-09-17T12:02:51.661Z,1010.68
2023-09-17T12:03:51.696Z,1010.68
2023-09-17T12:04:51.532Z,1010.72
2023-09-17T12:05:51.539Z,1010.73
2023-09-17T12:06:51.579Z,1010.72